Shtandart — UAEM — position and weather

sailwx.info

Track history (hours):
 
Tides and Currents Weather Stations Pressure Air Temp Water Temp Dewpoint Dewpoint Depression Visibility Wind Speed Wind Dir Waves Ship Positions

Shtandart

Re-creation of early 1700's Russian naval frigate.

Last reported at 2017-Apr-25 13:39 UTC. Time now 2017-Apr-26 15:34 UTC.
Position N 35°54' W 005°01'.

Length 34 m; draft 3 m.

Type: Sailing vessel. MMSI: 273452840.

Date/timePositionNaut miles runAvg speedWind from/ knotsBaromVisibWave heightAir tempDewpointWater temp
2017-Apr-25 13:39N 35°54' W 005°01'1 6.2
2017-Apr-25 13:28N 35°54' W 005°03'3 6.0
2017-Apr-25 12:59N 35°55' W 005°06'3 6.3
2017-Apr-25 12:31N 35°55' W 005°10'3 5.9
2017-Apr-25 12:00N 35°55' W 005°14'3 5.0
2017-Apr-25 11:30N 35°55' W 005°17'2 3.5
2017-Apr-25 11:00N 35°54' W 005°19'0 0.5
2017-Apr-25 10:28N 35°53' W 005°19'0 0.0
2017-Apr-25 09:58N 35°53' W 005°19'0 0.0
2017-Apr-25 09:28N 35°53' W 005°19'0 0.0
2017-Apr-25 08:58N 35°53' W 005°19'0 0.0
2017-Apr-25 08:28N 35°53' W 005°19'0 0.0
2017-Apr-25 07:58N 35°53' W 005°19'0 0.0
2017-Apr-25 07:28N 35°53' W 005°19'0 0.0
2017-Apr-25 06:58N 35°53' W 005°19'0 0.0
2017-Apr-25 06:28N 35°53' W 005°19'0 0.0
2017-Apr-25 05:58N 35°53' W 005°19'0 0.0
2017-Apr-25 05:28N 35°53' W 005°19'0 0.0
2017-Apr-25 04:58N 35°53' W 005°19'0 0.0
2017-Apr-25 04:28N 35°53' W 005°19'0 0.0
2017-Apr-25 03:58N 35°53' W 005°19'0 0.0
2017-Apr-25 03:28N 35°53' W 005°19'0 0.0
2017-Apr-25 02:58N 35°53' W 005°19'0 0.0
2017-Apr-25 02:28N 35°53' W 005°19'0 0.0
2017-Apr-25 01:58N 35°53' W 005°19'0 0.0
2017-Apr-25 01:28N 35°53' W 005°19'0 0.0
2017-Apr-25 00:58N 35°53' W 005°19'0 0.0
2017-Apr-25 00:28N 35°53' W 005°19'0 0.0
2017-Apr-24 23:58N 35°53' W 005°19'0 0.0
2017-Apr-24 23:28N 35°53' W 005°19'0 0.0
2017-Apr-24 22:58N 35°53' W 005°19'0 0.0
2017-Apr-24 22:28N 35°53' W 005°19'0 0.0
2017-Apr-24 21:58N 35°53' W 005°19'0 0.0
2017-Apr-24 21:28N 35°53' W 005°19'1 1.7
2017-Apr-24 21:00N 35°54' W 005°18'3 6.4
2017-Apr-24 20:30N 35°56' W 005°16'3 6.1
2017-Apr-24 19:58N 35°59' W 005°13'  
2017-Apr-19 12:25N 36°20' W 005°02'2 4.9
2017-Apr-19 12:01N 36°18' W 005°03'3 5.2
2017-Apr-19 11:30N 36°16' W 005°05'3 5.2
2017-Apr-19 11:01N 36°13' W 005°06'3 5.1
2017-Apr-19 10:30N 36°11' W 005°07'3 5.1
2017-Apr-19 10:00N 36°09' W 005°09'2 3.4
2017-Apr-19 09:30N 36°08' W 005°11'2 4.1
2017-Apr-19 09:00N 36°07' W 005°13'2 4.4
2017-Apr-19 08:30N 36°07' W 005°16'3 5.9
2017-Apr-19 08:00N 36°06' W 005°20'2 4.7
2017-Apr-19 07:30N 36°08' W 005°22'1 1.6
2017-Apr-19 06:55N 36°09' W 005°22'0 0.0
2017-Apr-19 06:28N 36°09' W 005°22'0 0.4
2017-Apr-19 05:59N 36°09' W 005°22'0 0.0
2017-Apr-19 05:29N 36°09' W 005°22'0 0.0
2017-Apr-19 04:59N 36°09' W 005°22'0 0.0
2017-Apr-19 04:29N 36°09' W 005°22'0 0.0
2017-Apr-19 03:59N 36°09' W 005°22'0 0.0
2017-Apr-19 03:29N 36°09' W 005°22'0 0.0
2017-Apr-19 02:59N 36°09' W 005°22'0 0.0
2017-Apr-19 02:29N 36°09' W 005°22'0 0.0
2017-Apr-19 01:56N 36°09' W 005°22'0 0.0
2017-Apr-19 01:29N 36°09' W 005°22'0 0.0
2017-Apr-19 00:59N 36°09' W 005°22'0 0.0
2017-Apr-19 00:29N 36°09' W 005°22'0 0.0
2017-Apr-18 23:59N 36°09' W 005°22'0 0.0
2017-Apr-18 23:29N 36°09' W 005°22'0 0.0
2017-Apr-18 22:59N 36°09' W 005°22'0 0.0
2017-Apr-18 22:29N 36°09' W 005°22'0 0.0
2017-Apr-18 21:59N 36°09' W 005°22'0 0.0
2017-Apr-18 21:29N 36°09' W 005°22'0 0.0
2017-Apr-18 20:59N 36°09' W 005°22'0 0.0
2017-Apr-18 20:29N 36°09' W 005°22'0 0.0
2017-Apr-18 19:59N 36°09' W 005°22'0 0.0
2017-Apr-18 19:23N 36°09' W 005°22'0 0.0
2017-Apr-18 18:59N 36°09' W 005°22'0 0.0
2017-Apr-18 18:23N 36°09' W 005°22'0 0.0
2017-Apr-18 17:59N 36°09' W 005°22'0 0.0
2017-Apr-18 17:29N 36°09' W 005°22'0 0.0
2017-Apr-18 16:59N 36°09' W 005°22'0 0.0
2017-Apr-18 16:29N 36°09' W 005°22'0 0.0
2017-Apr-18 15:59N 36°09' W 005°22'0 0.0
2017-Apr-18 15:29N 36°09' W 005°22'0 0.0
2017-Apr-18 15:00N 36°09' W 005°22'0 0.0
2017-Apr-18 14:00N 36°09' W 005°22'0 0.0
2017-Apr-18 13:30N 36°09' W 005°22'0 0.0
2017-Apr-18 13:00N 36°09' W 005°22'0 0.0
2017-Apr-18 12:30N 36°09' W 005°22'1 1.3
2017-Apr-18 12:00N 36°08' W 005°22'2 3.1
2017-Apr-18 11:30N 36°07' W 005°22'3 6.5
2017-Apr-18 11:00N 36°04' W 005°24'3 5.9
2017-Apr-18 10:30N 36°01' W 005°24'2 4.6
2017-Apr-18 10:00N 35°58' W 005°24'2 4.4
2017-Apr-18 09:30N 35°56' W 005°24'2 3.9
2017-Apr-18 09:00N 35°55' W 005°26'2 3.6
2017-Apr-18 08:30N 35°55' W 005°28'3 5.5
2017-Apr-18 08:00N 35°53' W 005°31'3 5.0
2017-Apr-18 07:28N 35°52' W 005°34'2 4.5
2017-Apr-18 06:56N 35°52' W 005°37'2 4.3
2017-Apr-18 06:24N 35°51' W 005°40'2 3.9
2017-Apr-18 05:56N 35°51' W 005°42'1 2.7
2017-Apr-18 05:27N 35°51' W 005°43'2 3.5
2017-Apr-18 05:00N 35°50' W 005°45'2 3.7
2017-Apr-18 04:30N 35°50' W 005°47'2 4.1
2017-Apr-18 03:58N 35°51' W 005°50'3 4.3
2017-Apr-18 03:23N 35°53' W 005°51'2 4.9
2017-Apr-18 02:59N 35°54' W 005°50'1 2.2
2017-Apr-18 02:25N 35°55' W 005°51'2 1.8
2017-Apr-18 01:19N 35°57' W 005°52'6 3.4
2017-Apr-17 23:37N 36°02' W 005°56'1 3.1
2017-Apr-17 23:22N 36°02' W 005°57'2 4.2
2017-Apr-17 23:00N 36°03' W 005°59'  
Track history (hours):
 
Tides and Currents Weather Stations Pressure Air Temp Water Temp Dewpoint Dewpoint Depression Visibility Wind Speed Wind Dir Waves Ship Positions

Shtandart

Re-creation of early 1700's Russian naval frigate.

Last reported at 2017-Apr-25 13:39 UTC. Time now 2017-Apr-26 15:34 UTC.
Position N 35°54' W 005°01'.

Length 34 m; draft 3 m.

Type: Sailing vessel. MMSI: 273452840.

Date/timePositionNaut miles runAvg speedWind from/ knotsBaromVisibWave heightAir tempDewpointWater temp
2017-Apr-25 13:39N 35°54' W 005°01'1 6.2
2017-Apr-25 13:28N 35°54' W 005°03'3 6.0
2017-Apr-25 12:59N 35°55' W 005°06'3 6.3
2017-Apr-25 12:31N 35°55' W 005°10'3 5.9
2017-Apr-25 12:00N 35°55' W 005°14'3 5.0
2017-Apr-25 11:30N 35°55' W 005°17'2 3.5
2017-Apr-25 11:00N 35°54' W 005°19'0 0.5
2017-Apr-25 10:28N 35°53' W 005°19'0 0.0
2017-Apr-25 09:58N 35°53' W 005°19'0 0.0
2017-Apr-25 09:28N 35°53' W 005°19'0 0.0
2017-Apr-25 08:58N 35°53' W 005°19'0 0.0
2017-Apr-25 08:28N 35°53' W 005°19'0 0.0
2017-Apr-25 07:58N 35°53' W 005°19'0 0.0
2017-Apr-25 07:28N 35°53' W 005°19'0 0.0
2017-Apr-25 06:58N 35°53' W 005°19'0 0.0
2017-Apr-25 06:28N 35°53' W 005°19'0 0.0
2017-Apr-25 05:58N 35°53' W 005°19'0 0.0
2017-Apr-25 05:28N 35°53' W 005°19'0 0.0
2017-Apr-25 04:58N 35°53' W 005°19'0 0.0
2017-Apr-25 04:28N 35°53' W 005°19'0 0.0
2017-Apr-25 03:58N 35°53' W 005°19'0 0.0
2017-Apr-25 03:28N 35°53' W 005°19'0 0.0
2017-Apr-25 02:58N 35°53' W 005°19'0 0.0
2017-Apr-25 02:28N 35°53' W 005°19'0 0.0
2017-Apr-25 01:58N 35°53' W 005°19'0 0.0
2017-Apr-25 01:28N 35°53' W 005°19'0 0.0
2017-Apr-25 00:58N 35°53' W 005°19'0 0.0
2017-Apr-25 00:28N 35°53' W 005°19'0 0.0
2017-Apr-24 23:58N 35°53' W 005°19'0 0.0
2017-Apr-24 23:28N 35°53' W 005°19'0 0.0
2017-Apr-24 22:58N 35°53' W 005°19'0 0.0
2017-Apr-24 22:28N 35°53' W 005°19'0 0.0
2017-Apr-24 21:58N 35°53' W 005°19'0 0.0
2017-Apr-24 21:28N 35°53' W 005°19'1 1.7
2017-Apr-24 21:00N 35°54' W 005°18'3 6.4
2017-Apr-24 20:30N 35°56' W 005°16'3 6.1
2017-Apr-24 19:58N 35°59' W 005°13'  
2017-Apr-19 12:25N 36°20' W 005°02'2 4.9
2017-Apr-19 12:01N 36°18' W 005°03'3 5.2
2017-Apr-19 11:30N 36°16' W 005°05'3 5.2
2017-Apr-19 11:01N 36°13' W 005°06'3 5.1
2017-Apr-19 10:30N 36°11' W 005°07'3 5.1
2017-Apr-19 10:00N 36°09' W 005°09'2 3.4
2017-Apr-19 09:30N 36°08' W 005°11'2 4.1
2017-Apr-19 09:00N 36°07' W 005°13'2 4.4
2017-Apr-19 08:30N 36°07' W 005°16'3 5.9
2017-Apr-19 08:00N 36°06' W 005°20'2 4.7
2017-Apr-19 07:30N 36°08' W 005°22'1 1.6
2017-Apr-19 06:55N 36°09' W 005°22'0 0.0
2017-Apr-19 06:28N 36°09' W 005°22'0 0.4
2017-Apr-19 05:59N 36°09' W 005°22'0 0.0
2017-Apr-19 05:29N 36°09' W 005°22'0 0.0
2017-Apr-19 04:59N 36°09' W 005°22'0 0.0
2017-Apr-19 04:29N 36°09' W 005°22'0 0.0
2017-Apr-19 03:59N 36°09' W 005°22'0 0.0
2017-Apr-19 03:29N 36°09' W 005°22'0 0.0
2017-Apr-19 02:59N 36°09' W 005°22'0 0.0
2017-Apr-19 02:29N 36°09' W 005°22'0 0.0
2017-Apr-19 01:56N 36°09' W 005°22'0 0.0
2017-Apr-19 01:29N 36°09' W 005°22'0 0.0
2017-Apr-19 00:59N 36°09' W 005°22'0 0.0
2017-Apr-19 00:29N 36°09' W 005°22'0 0.0
2017-Apr-18 23:59N 36°09' W 005°22'0 0.0
2017-Apr-18 23:29N 36°09' W 005°22'0 0.0
2017-Apr-18 22:59N 36°09' W 005°22'0 0.0
2017-Apr-18 22:29N 36°09' W 005°22'0 0.0
2017-Apr-18 21:59N 36°09' W 005°22'0 0.0
2017-Apr-18 21:29N 36°09' W 005°22'0 0.0
2017-Apr-18 20:59N 36°09' W 005°22'0 0.0
2017-Apr-18 20:29N 36°09' W 005°22'0 0.0
2017-Apr-18 19:59N 36°09' W 005°22'0 0.0
2017-Apr-18 19:23N 36°09' W 005°22'0 0.0
2017-Apr-18 18:59N 36°09' W 005°22'0 0.0
2017-Apr-18 18:23N 36°09' W 005°22'0 0.0
2017-Apr-18 17:59N 36°09' W 005°22'0 0.0
2017-Apr-18 17:29N 36°09' W 005°22'0 0.0
2017-Apr-18 16:59N 36°09' W 005°22'0 0.0
2017-Apr-18 16:29N 36°09' W 005°22'0 0.0
2017-Apr-18 15:59N 36°09' W 005°22'0 0.0
2017-Apr-18 15:29N 36°09' W 005°22'0 0.0
2017-Apr-18 15:00N 36°09' W 005°22'0 0.0
2017-Apr-18 14:00N 36°09' W 005°22'0 0.0
2017-Apr-18 13:30N 36°09' W 005°22'0 0.0
2017-Apr-18 13:00N 36°09' W 005°22'0 0.0
2017-Apr-18 12:30N 36°09' W 005°22'1 1.3
2017-Apr-18 12:00N 36°08' W 005°22'2 3.1
2017-Apr-18 11:30N 36°07' W 005°22'3 6.5
2017-Apr-18 11:00N 36°04' W 005°24'3 5.9
2017-Apr-18 10:30N 36°01' W 005°24'2 4.6
2017-Apr-18 10:00N 35°58' W 005°24'2 4.4
2017-Apr-18 09:30N 35°56' W 005°24'2 3.9
2017-Apr-18 09:00N 35°55' W 005°26'2 3.6
2017-Apr-18 08:30N 35°55' W 005°28'3 5.5
2017-Apr-18 08:00N 35°53' W 005°31'3 5.0
2017-Apr-18 07:28N 35°52' W 005°34'2 4.5
2017-Apr-18 06:56N 35°52' W 005°37'2 4.3
2017-Apr-18 06:24N 35°51' W 005°40'2 3.9
2017-Apr-18 05:56N 35°51' W 005°42'1 2.7
2017-Apr-18 05:27N 35°51' W 005°43'2 3.5
2017-Apr-18 05:00N 35°50' W 005°45'2 3.7
2017-Apr-18 04:30N 35°50' W 005°47'2 4.1
2017-Apr-18 03:58N 35°51' W 005°50'3 4.3
2017-Apr-18 03:23N 35°53' W 005°51'2 4.9
2017-Apr-18 02:59N 35°54' W 005°50'1 2.2
2017-Apr-18 02:25N 35°55' W 005°51'2 1.8
2017-Apr-18 01:19N 35°57' W 005°52'6 3.4
2017-Apr-17 23:37N 36°02' W 005°56'1 3.1
2017-Apr-17 23:22N 36°02' W 005°57'2 4.2
2017-Apr-17 23:00N 36°03' W 005°59'  

Dump ship's entire track history